Songkhla Airport
VTSH : now visible

Airfield :











YOU CAN JOIN US ON...

 
LOGIN :

Register | Disclaimer

   EN    FR    IT 

 









Legend :    VFR   Marginal VFR   IFR   Intensive IFR   Very Intensive IFR
Visi :
Ceiling :
>= 8 km
>= 3000ft
5 to 8 km
1000 to 3000 ft
1500m to 5 km
500 to 1000 ft
800 to 1500m
200 to 500 ft
< 800m
< 200 ft
Symbols :   Thunderstorms  Fog  Heavy snow  Heavy precipitations  Wind > 20 kt






- Airport Elevation : 12 ft
- IATA code : SGZ


VTSH - Songkhla

CURRENT METAR :
  • 010500Z 04006KT 9999 FEW020 32/26 Q1009 NOSIG

EXPIRED METARs :
  • 010400Z 07008KT 9999 FEW020 32/25 Q1010 NOSIG
  • 010300Z 08006KT 9999 FEW020 32/26 Q1011 NOSIG

TAF TAF VTSH
Valid from the 01 at 06:00 until the 02 at 06:00 UTC


010500Z 0106/0206 06010KT 9999 FEW020
BECMG 0114/0116 20003KT
BECMG 0204/0206 06010KT



MET'MAP, your aeronautical weather chart ! - Copyright ORBIFLY December 2007 - Disclaimer

ORBIFLY MET'MAP TEAM :

Programming & Development : Alexandra Zaïnal
Concept & original design : Baudouin d'Aumeries
Assistance for programming : Marc-Olivier Méhu
Technical & hardware support : Manuel Goepfert

Contact : metmap@orbifly.com




SOURCES & CREDITS :

   NOAA       Earth
Advisory